Huvudsida
METAR-TAF:

METAR-TAF

Flygplatser :

Gällivare Lapland Airport

Gällivare, Sverige

latitud: 67-09N, longitud: 020-39E, höjd: 359 m

Aktuellt väderrapport

Denna rapport gjordes för 25 minuter sedan, klockan 06:50 UTC
Vind 12 kt från väst
Temperatur 10°C
Fuktighet 71%
Tryck 993 hPa
Sikt 10 km eller mer
Mulet på en höjd av 4700 ft

METAR: ESNG 200650Z 28012KT 9999 OVC047 10/05 Q0993

Tid: 09:15 (07:15 UTC)

Väderprognos

Denna rapport gjordes för 1 timme och 45 minuter sedan, klockan 05:30 UTC
Prognos gäller från 20 kl. 06 UTC till 20 kl. 15 UTC
Vind 10 kt från väst
Sikt 10 km eller mer
Spridda moln på en höjd av 2000 ft
Brutna moln på en höjd av 4500 ft

TAF: ESNG 200530Z 2006/2015 27010KT 9999 SCT020 BKN045

Aktuella väderrapporter och prognoser från 4000 flygplatser (METAR- och TAF-rapporter).

De tillgängliga stationerna syns som gula och röda prickar på kartan.

För musen över prickarna för att se namnen på stationerna.

Klicka sedan för att få väderrapporter och prognoser.

För att ändra kartan: Klicka på de gröna knapparna med ett svart kors på för att zooma in; den gröna knappen med ett streck på för att zooma ut; eller på de gröna pilarna för angränsande kartor.


METAR-TAF: